Time;durP1;ratioP1;P1;durP2;ratioP2;P2;SDS_P1;SDS_P2;PMS_P1;PMS_P2;Temp;Humidity;BMP_temperature;BMP_pressure;BME280_temperature;BME280_humidity;BME280_pressure;Samples;Min_cycle;Max_cycle;Signal;HPM_P1;HPM_P2
2023/06/07 00:00:54;;;;;;;2.70;2.50;;;;;;;;;;4955298;28;20494;-71
2023/06/07 00:03:21;;;;;;;2.50;2.50;;;;;;;;;;4955213;28;20779;-69
2023/06/07 00:05:47;;;;;;;2.93;2.83;;;;;;;;;;4955503;28;20410;-71
2023/06/07 00:08:13;;;;;;;2.57;2.57;;;;;;;;;;4969976;28;20944;-70
2023/06/07 00:10:39;;;;;;;2.97;2.80;;;;;;;;;;4955164;28;20502;-71
2023/06/07 00:13:05;;;;;;;3.43;3.33;;;;;;;;;;4955063;28;20926;-70
2023/06/07 00:15:31;;;;;;;3.63;3.50;;;;;;;;;;4955146;28;20415;-70
2023/06/07 00:17:59;;;;;;;3.50;2.83;;;;;;;;;;4955271;28;20486;-70
2023/06/07 00:20:26;;;;;;;13.30;2.70;;;;;;;;;;4955041;28;20558;-69
2023/06/07 00:22:55;;;;;;;3.13;3.10;;;;;;;;;;4955749;28;20423;-72
2023/06/07 00:25:21;;;;;;;2.80;2.63;;;;;;;;;;4954865;28;20856;-70
2023/06/07 00:27:47;;;;;;;2.67;2.57;;;;;;;;;;4955007;28;20422;-70
2023/06/07 00:30:13;;;;;;;3.17;3.07;;;;;;;;;;4969873;28;20582;-70
2023/06/07 00:32:39;;;;;;;2.40;2.40;;;;;;;;;;4954184;28;20423;-70
2023/06/07 00:35:09;;;;;;;3.00;2.20;;;;;;;;;;4954812;28;20423;-70
2023/06/07 00:37:35;;;;;;;2.60;2.60;;;;;;;;;;4954711;28;20998;-70
2023/06/07 00:40:01;;;;;;;2.37;2.27;;;;;;;;;;4954854;28;20450;-70
2023/06/07 00:42:27;;;;;;;5.13;3.80;;;;;;;;;;4955016;28;20422;-69
2023/06/07 00:44:53;;;;;;;2.63;2.63;;;;;;;;;;4955197;28;20888;-70
2023/06/07 00:47:19;;;;;;;2.83;2.83;;;;;;;;;;4955015;28;20478;-69
2023/06/07 00:49:45;;;;;;;3.30;3.20;;;;;;;;;;4954778;28;20415;-69
2023/06/07 00:52:11;;;;;;;4.47;2.87;;;;;;;;;;4954758;28;20423;-70
2023/06/07 00:54:38;;;;;;;6.43;2.73;;;;;;;;;;4954880;28;20426;-69
2023/06/07 00:57:05;;;;;;;2.50;2.40;;;;;;;;;;4955143;28;20469;-70
2023/06/07 00:59:31;;;;;;;3.03;2.83;;;;;;;;;;4954903;28;20422;-70
2023/06/07 01:01:57;;;;;;;3.37;2.60;;;;;;;;;;4954680;28;20426;-70
2023/06/07 01:04:24;;;;;;;2.60;2.50;;;;;;;;;;4953682;28;20427;-69
2023/06/07 01:06:52;;;;;;;3.00;2.90;;;;;;;;;;4954275;28;20961;-70
2023/06/07 01:09:19;;;;;;;3.30;3.20;;;;;;;;;;4954643;28;20423;-70
2023/06/07 01:11:48;;;;;;;2.43;2.43;;;;;;;;;;4953903;28;20966;-70
2023/06/07 01:14:15;;;;;;;1.90;1.80;;;;;;;;;;4969328;28;20818;-69
2023/06/07 01:16:41;;;;;;;4.57;2.50;;;;;;;;;;4954407;28;20510;-70
2023/06/07 01:19:10;;;;;;;2.77;2.67;;;;;;;;;;4954781;28;20419;-71
2023/06/07 01:21:37;;;;;;;2.77;2.67;;;;;;;;;;4954818;28;20429;-71
2023/06/07 01:24:04;;;;;;;3.30;3.10;;;;;;;;;;4969295;28;20423;-69
2023/06/07 01:26:31;;;;;;;2.73;2.50;;;;;;;;;;4954623;28;20427;-69
2023/06/07 01:29:05;;;;;;;3.17;2.97;;;;;;;;;;4954722;28;20422;-69
2023/06/07 01:31:31;;;;;;;6.00;2.37;;;;;;;;;;4954558;28;20403;-70
2023/06/07 01:33:57;;;;;;;3.50;3.30;;;;;;;;;;4954638;28;20430;-70
2023/06/07 01:36:24;;;;;;;2.80;2.70;;;;;;;;;;4954428;28;20490;-69
2023/06/07 01:38:50;;;;;;;2.33;2.23;;;;;;;;;;4954245;28;20427;-69
2023/06/07 01:41:16;;;;;;;11.70;2.77;;;;;;;;;;4954577;28;20416;-70
2023/06/07 01:43:42;;;;;;;2.60;2.50;;;;;;;;;;4954450;28;20445;-70
2023/06/07 01:46:09;;;;;;;5.20;2.90;;;;;;;;;;4957193;28;20903;-70
2023/06/07 01:48:35;;;;;;;2.33;2.33;;;;;;;;;;4957523;28;20477;-69
2023/06/07 01:51:01;;;;;;;5.13;3.50;;;;;;;;;;4957661;28;20418;-70
2023/06/07 01:53:28;;;;;;;2.30;2.20;;;;;;;;;;4957831;28;20437;-70
2023/06/07 01:56:00;;;;;;;3.73;3.37;;;;;;;;;;4957448;28;20511;-70
2023/06/07 01:58:32;;;;;;;3.50;3.20;;;;;;;;;;4957911;28;20759;-69
2023/06/07 02:01:07;;;;;;;2.60;2.57;;;;;;;;;;4957714;28;20555;-71
2023/06/07 02:03:41;;;;;;;5.23;3.40;;;;;;;;;;4957734;28;20454;-70
2023/06/07 02:06:10;;;;;;;2.93;2.47;;;;;;;;;;4957263;28;20486;-70
2023/06/07 02:08:42;;;;;;;3.37;3.17;;;;;;;;;;4957238;28;20911;-70
2023/06/07 02:11:08;;;;;;;3.50;3.40;;;;;;;;;;4957577;28;20404;-70
2023/06/07 02:13:35;;;;;;;2.63;2.53;;;;;;;;;;4957495;28;20427;-70
2023/06/07 02:16:05;;;;;;;3.57;3.27;;;;;;;;;;4957284;28;20419;-71
2023/06/07 02:18:32;;;;;;;2.70;2.60;;;;;;;;;;4957419;28;20419;-69
2023/06/07 02:20:58;;;;;;;3.30;2.20;;;;;;;;;;4957274;28;20427;-69
2023/06/07 02:23:24;;;;;;;3.07;2.83;;;;;;;;;;4957307;28;20430;-70
2023/06/07 02:25:50;;;;;;;2.80;2.60;;;;;;;;;;4957018;28;20482;-70
2023/06/07 02:28:16;;;;;;;3.43;3.33;;;;;;;;;;4957248;28;20423;-70
2023/06/07 02:30:42;;;;;;;3.07;2.97;;;;;;;;;;4957235;28;20433;-70
2023/06/07 02:33:13;;;;;;;6.83;3.20;;;;;;;;;;4957129;28;20429;-70
2023/06/07 02:35:40;;;;;;;2.80;2.80;;;;;;;;;;4957118;28;20419;-69
2023/06/07 02:38:06;;;;;;;7.10;3.90;;;;;;;;;;4971387;28;20561;-70
2023/06/07 02:40:33;;;;;;;3.67;3.50;;;;;;;;;;4956791;28;20451;-68
2023/06/07 02:42:59;;;;;;;2.73;2.73;;;;;;;;;;4957207;28;20458;-70
2023/06/07 02:45:25;;;;;;;3.17;3.03;;;;;;;;;;4956854;28;20502;-69
2023/06/07 02:47:51;;;;;;;3.93;3.83;;;;;;;;;;4956329;28;20471;-69
2023/06/07 02:50:17;;;;;;;3.77;3.57;;;;;;;;;;4956564;28;20419;-71
2023/06/07 02:52:44;;;;;;;3.50;3.40;;;;;;;;;;4956739;28;20419;-71
2023/06/07 02:55:10;;;;;;;2.90;2.77;;;;;;;;;;4970726;28;20423;-70
2023/06/07 02:57:36;;;;;;;2.40;2.20;;;;;;;;;;4956300;28;20561;-69
2023/06/07 03:00:10;;;;;;;2.97;2.77;;;;;;;;;;4956619;28;20862;-70
2023/06/07 03:02:36;;;;;;;3.53;2.60;;;;;;;;;;4956286;28;20414;-70
2023/06/07 03:05:02;;;;;;;3.40;3.30;;;;;;;;;;4956571;28;20423;-69
2023/06/07 03:07:28;;;;;;;2.90;2.70;;;;;;;;;;4956491;28;20427;-70
2023/06/07 03:09:54;;;;;;;8.43;3.30;;;;;;;;;;4956204;28;20415;-70
2023/06/07 03:12:20;;;;;;;3.73;3.43;;;;;;;;;;4956400;28;20478;-69
2023/06/07 03:14:46;;;;;;;2.40;2.40;;;;;;;;;;4970820;28;20951;-69
2023/06/07 03:17:12;;;;;;;3.20;3.00;;;;;;;;;;4956393;28;20825;-69
2023/06/07 03:19:38;;;;;;;4.27;3.50;;;;;;;;;;4956075;28;20426;-69
2023/06/07 03:22:08;;;;;;;3.30;3.10;;;;;;;;;;4956204;28;20484;-70
2023/06/07 03:24:36;;;;;;;4.30;3.90;;;;;;;;;;4955804;28;20789;-70
2023/06/07 03:27:02;;;;;;;5.37;3.20;;;;;;;;;;4956084;29;20425;-70
2023/06/07 03:29:28;;;;;;;4.03;3.73;;;;;;;;;;4955766;28;20779;-70
2023/06/07 03:31:54;;;;;;;4.00;3.63;;;;;;;;;;4956077;28;20489;-70
2023/06/07 03:34:20;;;;;;;2.73;2.53;;;;;;;;;;4955728;28;20903;-70
2023/06/07 03:36:47;;;;;;;3.40;3.17;;;;;;;;;;4970438;28;21018;-70
2023/06/07 03:39:13;;;;;;;3.40;3.20;;;;;;;;;;4955633;28;20904;-72
2023/06/07 03:41:39;;;;;;;3.90;3.60;;;;;;;;;;4956120;28;20430;-71
2023/06/07 03:44:05;;;;;;;4.57;3.67;;;;;;;;;;4955810;28;20426;-69
2023/06/07 03:46:31;;;;;;;9.90;3.80;;;;;;;;;;4955284;28;20422;-70
2023/06/07 03:48:57;;;;;;;3.00;3.00;;;;;;;;;;4955843;28;20411;-71
2023/06/07 03:51:23;;;;;;;5.17;3.70;;;;;;;;;;4970368;28;20427;-70
2023/06/07 03:53:49;;;;;;;3.47;3.37;;;;;;;;;;4955138;28;20423;-70
2023/06/07 03:56:15;;;;;;;3.23;3.13;;;;;;;;;;4955236;28;20830;-70
2023/06/07 03:58:41;;;;;;;3.37;3.17;;;;;;;;;;4955561;28;20434;-70
2023/06/07 04:01:07;;;;;;;3.30;3.20;;;;;;;;;;4955576;28;20411;-70
2023/06/07 04:03:34;;;;;;;3.80;3.70;;;;;;;;;;4955236;28;20461;-70
2023/06/07 04:06:00;;;;;;;3.50;3.20;;;;;;;;;;4955707;28;20407;-70
2023/06/07 04:08:26;;;;;;;5.33;4.30;;;;;;;;;;4955297;28;20423;-70
2023/06/07 04:10:52;;;;;;;9.50;3.93;;;;;;;;;;4955444;28;20558;-70
2023/06/07 04:13:18;;;;;;;2.70;2.50;;;;;;;;;;4955352;28;20422;-70
2023/06/07 04:15:45;;;;;;;20.53;4.40;;;;;;;;;;4955288;28;20415;-70
2023/06/07 04:18:11;;;;;;;3.90;3.70;;;;;;;;;;4955536;28;20533;-71
2023/06/07 04:20:38;;;;;;;3.43;3.33;;;;;;;;;;4969971;28;20795;-71
2023/06/07 04:23:05;;;;;;;3.17;3.07;;;;;;;;;;4955505;28;20493;-69
2023/06/07 04:25:32;;;;;;;4.77;3.03;;;;;;;;;;4954920;28;20411;-71
2023/06/07 04:28:01;;;;;;;4.00;3.30;;;;;;;;;;4955143;28;20419;-70
2023/06/07 04:30:34;;;;;;;5.27;3.60;;;;;;;;;;4955146;28;20466;-70
2023/06/07 04:33:03;;;;;;;4.57;4.07;;;;;;;;;;4954981;28;20391;-69
2023/06/07 04:35:31;;;;;;;3.40;3.10;;;;;;;;;;4955119;28;20415;-70
2023/06/07 04:37:57;;;;;;;3.13;3.00;;;;;;;;;;4955073;28;20517;-69
2023/06/07 04:40:23;;;;;;;3.57;3.37;;;;;;;;;;4955080;28;20416;-69
2023/06/07 04:43:05;;;;;;;3.63;3.03;;;;;;;;;;4955293;28;20422;-69
2023/06/07 04:45:34;;;;;;;3.90;3.70;;;;;;;;;;4954930;28;20411;-70
2023/06/07 04:48:00;;;;;;;3.40;3.20;;;;;;;;;;4954619;28;20521;-69
2023/06/07 04:50:28;;;;;;;4.40;3.50;;;;;;;;;;4969642;28;20482;-71
2023/06/07 04:53:00;;;;;;;5.60;4.00;;;;;;;;;;4954956;28;20426;-69
2023/06/07 04:55:28;;;;;;;4.10;3.80;;;;;;;;;;4954955;28;20466;-69
2023/06/07 04:57:54;;;;;;;3.27;3.00;;;;;;;;;;4954571;28;20470;-70
2023/06/07 05:00:20;;;;;;;3.93;3.63;;;;;;;;;;4954574;28;20878;-70
2023/06/07 05:02:46;;;;;;;3.07;2.87;;;;;;;;;;4954859;28;20514;-70
2023/06/07 05:05:13;;;;;;;3.03;2.93;;;;;;;;;;4969447;28;20890;-69
2023/06/07 05:07:41;;;;;;;3.00;2.80;;;;;;;;;;4955365;28;20443;-70
2023/06/07 05:10:07;;;;;;;3.23;3.13;;;;;;;;;;4954480;28;20986;-70
2023/06/07 05:12:33;;;;;;;4.10;3.70;;;;;;;;;;4955206;28;20427;-70
2023/06/07 05:14:59;;;;;;;3.73;3.63;;;;;;;;;;4955177;28;20474;-70
2023/06/07 05:17:28;;;;;;;4.17;3.90;;;;;;;;;;4969240;28;20557;-71
2023/06/07 05:19:54;;;;;;;5.47;3.93;;;;;;;;;;4957069;28;20418;-69
2023/06/07 05:22:21;;;;;;;3.80;3.60;;;;;;;;;;4958413;28;20426;-69
2023/06/07 05:24:47;;;;;;;3.80;3.50;;;;;;;;;;4958028;28;20458;-69
2023/06/07 05:27:14;;;;;;;4.00;3.40;;;;;;;;;;4958361;28;20844;-69
2023/06/07 05:29:40;;;;;;;3.87;3.77;;;;;;;;;;4958285;28;20419;-71
2023/06/07 05:32:06;;;;;;;3.17;3.07;;;;;;;;;;4958435;28;20991;-70
2023/06/07 05:34:32;;;;;;;3.73;2.93;;;;;;;;;;4958232;28;20422;-70
2023/06/07 05:36:58;;;;;;;3.80;3.60;;;;;;;;;;4958332;28;20478;-71
2023/06/07 05:39:24;;;;;;;7.10;3.87;;;;;;;;;;4957825;28;20431;-72
2023/06/07 05:41:51;;;;;;;3.47;3.37;;;;;;;;;;4958515;28;20457;-70
2023/06/07 05:44:17;;;;;;;5.70;3.53;;;;;;;;;;4958057;28;20434;-69
2023/06/07 05:46:43;;;;;;;4.10;4.00;;;;;;;;;;4957355;28;20458;-68
2023/06/07 05:49:09;;;;;;;7.93;3.20;;;;;;;;;;4957965;28;20498;-69
2023/06/07 05:51:36;;;;;;;3.40;3.20;;;;;;;;;;4957272;28;20473;-68
2023/06/07 05:54:05;;;;;;;2.40;2.30;;;;;;;;;;4957756;28;20433;-69
2023/06/07 05:56:31;;;;;;;3.27;2.83;;;;;;;;;;4957663;28;20584;-69
2023/06/07 05:58:57;;;;;;;3.23;3.13;;;;;;;;;;4957475;28;20521;-69
2023/06/07 06:01:23;;;;;;;3.77;3.50;;;;;;;;;;4957477;28;20446;-69
2023/06/07 06:03:49;;;;;;;3.47;3.40;;;;;;;;;;4957334;28;20946;-70
2023/06/07 06:06:16;;;;;;;8.13;3.30;;;;;;;;;;4957519;28;20489;-69
2023/06/07 06:08:42;;;;;;;3.40;3.30;;;;;;;;;;4957481;28;20459;-69
2023/06/07 06:11:11;;;;;;;3.70;3.50;;;;;;;;;;4957228;28;20895;-69
2023/06/07 06:13:38;;;;;;;3.37;3.27;;;;;;;;;;4957347;28;20438;-68
2023/06/07 06:16:04;;;;;;;3.37;3.17;;;;;;;;;;4957185;28;20415;-69
2023/06/07 06:18:30;;;;;;;6.63;3.40;;;;;;;;;;4956990;28;20981;-69
2023/06/07 06:20:57;;;;;;;3.13;3.07;;;;;;;;;;4957328;28;20423;-69
2023/06/07 06:23:24;;;;;;;9.40;5.60;;;;;;;;;;4956920;28;20864;-68
2023/06/07 06:25:51;;;;;;;4.30;3.10;;;;;;;;;;4957259;28;20425;-68
2023/06/07 06:28:17;;;;;;;4.20;3.90;;;;;;;;;;4956839;28;20427;-70
2023/06/07 06:30:44;;;;;;;8.27;3.10;;;;;;;;;;4956823;28;20459;-69
2023/06/07 06:33:10;;;;;;;3.37;3.07;;;;;;;;;;4956945;28;20627;-67
2023/06/07 06:35:37;;;;;;;3.60;3.40;;;;;;;;;;4956787;28;20419;-71
2023/06/07 06:38:03;;;;;;;3.30;3.13;;;;;;;;;;4956854;28;20545;-70
2023/06/07 06:40:29;;;;;;;3.80;3.60;;;;;;;;;;4956939;28;20468;-69
2023/06/07 06:42:55;;;;;;;3.00;3.00;;;;;;;;;;4956979;28;20426;-63
2023/06/07 06:45:21;;;;;;;3.50;3.40;;;;;;;;;;4956898;28;20415;-62
2023/06/07 06:47:47;;;;;;;2.90;2.80;;;;;;;;;;4956591;28;20489;-64
2023/06/07 06:50:13;;;;;;;3.33;3.13;;;;;;;;;;4956984;28;20907;-63
2023/06/07 06:52:39;;;;;;;3.37;3.10;;;;;;;;;;4956663;28;20459;-63
2023/06/07 06:55:06;;;;;;;3.80;3.50;;;;;;;;;;4956794;28;20943;-67
2023/06/07 06:57:32;;;;;;;3.20;3.10;;;;;;;;;;4956296;28;20478;-62
2023/06/07 06:59:59;;;;;;;6.23;3.27;;;;;;;;;;4956278;28;20474;-64
2023/06/07 07:02:25;;;;;;;3.30;3.20;;;;;;;;;;4956952;28;20430;-62
2023/06/07 07:04:51;;;;;;;3.77;3.60;;;;;;;;;;4956813;28;20427;-61
2023/06/07 07:07:17;;;;;;;3.10;3.00;;;;;;;;;;4956236;28;20455;-63
2023/06/07 07:09:43;;;;;;;3.03;2.93;;;;;;;;;;4956522;28;20558;-71
2023/06/07 07:12:10;;;;;;;3.17;3.10;;;;;;;;;;4971085;28;20908;-70
2023/06/07 07:14:36;;;;;;;3.80;2.90;;;;;;;;;;4956288;28;20466;-70
2023/06/07 07:17:02;;;;;;;3.73;3.43;;;;;;;;;;4955959;28;20502;-70
2023/06/07 07:19:28;;;;;;;3.50;3.30;;;;;;;;;;4956024;28;20430;-69
2023/06/07 07:21:54;;;;;;;4.43;3.07;;;;;;;;;;4955941;28;20419;-69
2023/06/07 07:24:20;;;;;;;3.80;3.60;;;;;;;;;;4956103;28;20441;-69
2023/06/07 07:26:46;;;;;;;3.37;3.27;;;;;;;;;;4955842;28;20792;-68
2023/06/07 07:29:12;;;;;;;5.13;2.97;;;;;;;;;;4956068;28;20856;-69
2023/06/07 07:31:39;;;;;;;3.83;3.53;;;;;;;;;;4955756;28;20419;-71
2023/06/07 07:34:05;;;;;;;2.90;2.70;;;;;;;;;;4955940;28;20422;-69
2023/06/07 07:36:33;;;;;;;3.77;3.57;;;;;;;;;;4955586;28;20462;-69
2023/06/07 07:38:59;;;;;;;6.63;3.70;;;;;;;;;;4955884;28;20470;-69
2023/06/07 07:41:25;;;;;;;3.73;3.43;;;;;;;;;;4955119;28;20580;-70
2023/06/07 07:43:52;;;;;;;3.43;3.23;;;;;;;;;;4955567;28;20451;-70
2023/06/07 07:46:18;;;;;;;9.83;3.43;;;;;;;;;;4955387;28;20411;-70
2023/06/07 07:48:44;;;;;;;3.10;3.10;;;;;;;;;;4955686;28;20434;-70
2023/06/07 07:51:10;;;;;;;4.20;4.00;;;;;;;;;;4955420;28;20423;-69
2023/06/07 07:53:36;;;;;;;4.40;3.40;;;;;;;;;;4955283;28;20474;-70
2023/06/07 07:56:02;;;;;;;2.90;2.80;;;;;;;;;;4955417;28;20430;-69
2023/06/07 07:58:28;;;;;;;3.73;3.53;;;;;;;;;;4955499;28;20490;-69
2023/06/07 08:00:54;;;;;;;3.27;3.00;;;;;;;;;;4955415;28;20418;-69
2023/06/07 08:03:21;;;;;;;4.10;2.60;;;;;;;;;;4955448;28;20425;-70
2023/06/07 08:05:47;;;;;;;3.80;3.10;;;;;;;;;;4955230;28;20419;-69
2023/06/07 08:08:13;;;;;;;3.40;2.97;;;;;;;;;;4955467;28;20423;-69
2023/06/07 08:10:39;;;;;;;3.03;2.93;;;;;;;;;;4955155;28;20973;-69
2023/06/07 08:13:04;;;;;;;4.83;3.20;;;;;;;;;;4954900;28;20529;-69
2023/06/07 08:15:31;;;;;;;3.97;3.67;;;;;;;;;;4955276;28;20478;-70
2023/06/07 08:17:57;;;;;;;3.20;3.10;;;;;;;;;;4954976;28;20841;-69
2023/06/07 08:20:23;;;;;;;3.50;3.20;;;;;;;;;;4955043;28;20421;-69
2023/06/07 08:22:53;;;;;;;2.97;2.83;;;;;;;;;;4954976;28;20443;-68
2023/06/07 08:25:19;;;;;;;4.03;2.90;;;;;;;;;;4955560;28;20490;-70
2023/06/07 08:30:48;;;;;;;3.60;3.53;;;;;;;;;;4954895;29;20394;-70
2023/06/07 08:33:15;;;;;;;3.40;3.13;;;;;;;;;;4955433;28;20422;-70
2023/06/07 08:35:42;;;;;;;5.87;3.40;;;;;;;;;;4955045;28;20442;-69
2023/06/07 08:38:08;;;;;;;6.63;3.40;;;;;;;;;;4955012;28;20474;-70
2023/06/07 08:40:36;;;;;;;3.33;3.23;;;;;;;;;;4955124;28;20419;-69
2023/06/07 08:43:03;;;;;;;7.40;3.73;;;;;;;;;;4955013;28;20484;-69
2023/06/07 08:45:29;;;;;;;3.17;3.07;;;;;;;;;;4954652;28;20911;-69
2023/06/07 08:47:57;;;;;;;4.53;4.23;;;;;;;;;;4954648;28;21053;-69
2023/06/07 08:50:23;;;;;;;7.33;3.67;;;;;;;;;;4954756;28;20415;-69
2023/06/07 08:52:52;;;;;;;5.20;3.07;;;;;;;;;;4954889;28;20899;-69
2023/06/07 08:55:18;;;;;;;6.00;3.20;;;;;;;;;;4957909;28;20557;-69
2023/06/07 08:57:50;;;;;;;3.70;3.27;;;;;;;;;;4958583;28;20652;-70
2023/06/07 09:00:20;;;;;;;3.10;3.00;;;;;;;;;;4958846;28;20411;-70
2023/06/07 09:02:51;;;;;;;5.97;5.33;;;;;;;;;;4958716;28;20478;-69
2023/06/07 09:05:17;;;;;;;2.93;2.73;;;;;;;;;;4958780;28;20490;-69
2023/06/07 09:07:43;;;;;;;5.20;3.10;;;;;;;;;;4958435;28;20451;-70
2023/06/07 09:10:09;;;;;;;2.30;2.20;;;;;;;;;;4958879;28;20465;-70
2023/06/07 09:12:35;;;;;;;2.47;2.37;;;;;;;;;;4958811;28;20895;-69
2023/06/07 09:15:01;;;;;;;3.20;3.10;;;;;;;;;;4958453;28;20497;-69
2023/06/07 09:17:46;;;;;;;3.80;3.07;;;;;;;;;;4958148;28;20513;-69
2023/06/07 09:20:22;;;;;;;3.80;2.90;;;;;;;;;;4958462;28;20820;-71
2023/06/07 09:22:56;;;;;;;2.70;2.50;;;;;;;;;;4958131;28;20449;-69
2023/06/07 09:25:23;;;;;;;3.70;3.60;;;;;;;;;;4958596;28;20755;-70
2023/06/07 09:27:52;;;;;;;3.03;2.93;;;;;;;;;;4957993;28;20977;-71
2023/06/07 09:30:18;;;;;;;2.90;2.77;;;;;;;;;;4958171;28;20415;-69
2023/06/07 09:32:44;;;;;;;2.33;2.20;;;;;;;;;;4958456;28;20769;-69
2023/06/07 09:35:18;;;;;;;3.67;2.50;;;;;;;;;;4957914;28;20489;-69
2023/06/07 09:37:46;;;;;;;4.10;3.00;;;;;;;;;;4957799;28;20505;-69
2023/06/07 09:40:13;;;;;;;2.90;2.90;;;;;;;;;;4957861;28;20411;-70
2023/06/07 09:42:39;;;;;;;2.50;2.50;;;;;;;;;;4957656;28;21079;-69
2023/06/07 09:45:09;;;;;;;2.43;2.33;;;;;;;;;;4957917;28;20419;-69
2023/06/07 09:47:36;;;;;;;2.30;2.13;;;;;;;;;;4956933;28;20474;-70
2023/06/07 09:50:09;;;;;;;6.83;2.87;;;;;;;;;;4956404;28;20923;-70
2023/06/07 09:52:35;;;;;;;3.00;2.90;;;;;;;;;;4956302;28;20939;-69
2023/06/07 09:55:06;;;;;;;2.73;1.87;;;;;;;;;;4956945;28;20411;-69
2023/06/07 09:57:33;;;;;;;3.67;3.47;;;;;;;;;;4956683;28;20470;-69
2023/06/07 10:00:13;;;;;;;2.90;2.70;;;;;;;;;;4956231;28;20780;-71
2023/06/07 10:02:41;;;;;;;2.83;2.63;;;;;;;;;;4956956;28;20407;-69
2023/06/07 10:05:07;;;;;;;4.23;2.83;;;;;;;;;;4956074;28;20415;-69
2023/06/07 10:07:35;;;;;;;2.40;2.40;;;;;;;;;;4956243;28;20826;-69
2023/06/07 10:10:02;;;;;;;2.93;2.33;;;;;;;;;;4956404;28;20411;-70
2023/06/07 10:12:29;;;;;;;3.03;2.83;;;;;;;;;;4956457;28;20458;-68
2023/06/07 10:14:55;;;;;;;2.40;2.30;;;;;;;;;;4956212;28;20442;-68
2023/06/07 10:17:25;;;;;;;5.20;3.30;;;;;;;;;;4956176;28;20474;-68
2023/06/07 10:19:57;;;;;;;2.37;2.37;;;;;;;;;;4956241;28;20434;-68
2023/06/07 10:22:24;;;;;;;2.60;2.60;;;;;;;;;;4956295;28;20395;-69
2023/06/07 10:24:55;;;;;;;3.07;2.97;;;;;;;;;;4956130;28;20451;-69
2023/06/07 10:27:23;;;;;;;3.83;3.63;;;;;;;;;;4956163;28;20403;-68
2023/06/07 10:30:03;;;;;;;2.60;2.47;;;;;;;;;;4955786;28;20431;-70
2023/06/07 10:32:31;;;;;;;2.50;2.30;;;;;;;;;;4955803;28;20415;-68
2023/06/07 10:34:58;;;;;;;2.73;2.63;;;;;;;;;;4955670;28;20427;-69
2023/06/07 10:37:24;;;;;;;2.47;2.37;;;;;;;;;;4955992;28;20537;-68
2023/06/07 10:39:50;;;;;;;3.40;3.10;;;;;;;;;;4955740;28;20419;-71
2023/06/07 10:42:17;;;;;;;2.57;2.37;;;;;;;;;;4955659;28;20434;-70
2023/06/07 10:44:43;;;;;;;8.07;2.50;;;;;;;;;;4955824;28;20986;-69
2023/06/07 10:47:25;;;;;;;2.33;2.13;;;;;;;;;;4919737;28;1056754;-68
2023/06/07 10:49:51;;;;;;;2.80;2.70;;;;;;;;;;4956579;28;20175;-69
2023/06/07 10:52:17;;;;;;;2.70;2.60;;;;;;;;;;4956491;28;20966;-69
2023/06/07 10:54:44;;;;;;;2.43;2.33;;;;;;;;;;4956553;28;20555;-68
2023/06/07 10:57:10;;;;;;;5.03;2.37;;;;;;;;;;4956690;28;20479;-69
2023/06/07 10:59:37;;;;;;;2.63;2.63;;;;;;;;;;4956330;28;20518;-68
2023/06/07 11:02:23;;;;;;;3.40;2.40;;;;;;;;;;4956497;28;20419;-69
2023/06/07 11:04:49;;;;;;;2.50;2.40;;;;;;;;;;4956199;28;20438;-68
2023/06/07 11:07:27;;;;;;;2.20;2.20;;;;;;;;;;4956443;28;20927;-70
2023/06/07 11:10:07;;;;;;;2.47;2.43;;;;;;;;;;4956219;28;20410;-69
2023/06/07 11:12:44;;;;;;;7.37;3.30;;;;;;;;;;4956148;28;20784;-70
2023/06/07 11:15:20;;;;;;;3.83;2.53;;;;;;;;;;4955966;28;20405;-70
2023/06/07 11:17:56;;;;;;;2.67;2.57;;;;;;;;;;4955282;28;20486;-69
2023/06/07 11:20:52;;;;;;;2.60;2.40;;;;;;;;;;4955093;28;20964;-69
2023/06/07 11:23:30;;;;;;;2.93;2.80;;;;;;;;;;4951006;29;20433;-70
2023/06/07 11:25:57;;;;;;;2.50;2.27;;;;;;;;;;4956818;28;20421;-70
2023/06/07 11:28:23;;;;;;;2.60;2.60;;;;;;;;;;4956181;28;20566;-70
2023/06/07 11:30:51;;;;;;;3.20;3.00;;;;;;;;;;4970581;28;20911;-71
2023/06/07 11:33:17;;;;;;;2.60;2.53;;;;;;;;;;4955119;28;20521;-70
2023/06/07 11:35:43;;;;;;;3.27;3.17;;;;;;;;;;4955408;28;20431;-70
2023/06/07 11:38:10;;;;;;;4.00;2.63;;;;;;;;;;4955391;28;20519;-70
2023/06/07 11:40:36;;;;;;;3.13;2.80;;;;;;;;;;4955841;28;20422;-69
2023/06/07 11:43:02;;;;;;;2.43;2.40;;;;;;;;;;4955596;28;20805;-69
2023/06/07 11:45:29;;;;;;;2.80;2.70;;;;;;;;;;4955449;28;20415;-70
2023/06/07 11:48:01;;;;;;;3.90;2.60;;;;;;;;;;4955292;28;20915;-71
2023/06/07 11:50:27;;;;;;;3.30;2.77;;;;;;;;;;4955436;28;20513;-71
2023/06/07 11:52:53;;;;;;;2.90;2.80;;;;;;;;;;4955495;28;20454;-69
2023/06/07 11:55:20;;;;;;;2.53;2.43;;;;;;;;;;4955632;28;20419;-70
2023/06/07 11:57:51;;;;;;;2.53;2.43;;;;;;;;;;4955519;28;20521;-71
2023/06/07 12:00:20;;;;;;;3.80;2.60;;;;;;;;;;4955533;28;20395;-70
2023/06/07 12:02:46;;;;;;;2.03;2.03;;;;;;;;;;4955491;28;20419;-70
2023/06/07 12:05:12;;;;;;;3.80;3.07;;;;;;;;;;4955188;28;20410;-70
2023/06/07 12:07:40;;;;;;;2.73;2.63;;;;;;;;;;4955159;28;20449;-71
2023/06/07 12:10:07;;;;;;;3.00;2.90;;;;;;;;;;4955282;28;20682;-69
2023/06/07 12:12:33;;;;;;;2.00;2.00;;;;;;;;;;4969726;28;20442;-70
2023/06/07 12:15:00;;;;;;;8.70;3.10;;;;;;;;;;4969544;28;20953;-70
2023/06/07 12:17:34;;;;;;;3.53;3.03;;;;;;;;;;4955180;28;20475;-70
2023/06/07 12:20:14;;;;;;;2.73;2.53;;;;;;;;;;4954984;28;20411;-70
2023/06/07 12:22:40;;;;;;;7.53;2.70;;;;;;;;;;4954989;28;20565;-69
2023/06/07 12:25:08;;;;;;;3.30;3.20;;;;;;;;;;4956037;28;20522;-69
2023/06/07 12:30:47;;;;;;;1.80;1.80;;;;;;;;;;4954968;29;20435;-69
2023/06/07 12:33:17;;;;;;;6.83;2.50;;;;;;;;;;4955070;28;20427;-69
2023/06/07 12:35:47;;;;;;;3.37;2.93;;;;;;;;;;4955047;28;20917;-69
2023/06/07 12:38:13;;;;;;;3.60;3.00;;;;;;;;;;4954717;28;20939;-69
2023/06/07 12:40:39;;;;;;;2.50;2.50;;;;;;;;;;4955069;28;20427;-70
2023/06/07 12:43:06;;;;;;;6.77;3.20;;;;;;;;;;4954766;28;20422;-69
2023/06/07 12:45:32;;;;;;;2.70;2.50;;;;;;;;;;4954590;28;20411;-69
2023/06/07 12:47:58;;;;;;;2.73;2.63;;;;;;;;;;4954720;28;20471;-70
2023/06/07 12:50:24;;;;;;;2.43;2.40;;;;;;;;;;4954705;28;20415;-70
2023/06/07 12:52:50;;;;;;;1.93;1.83;;;;;;;;;;4954768;28;20474;-68
2023/06/07 12:55:17;;;;;;;3.20;3.10;;;;;;;;;;4954922;28;20423;-69
2023/06/07 12:57:43;;;;;;;2.70;2.67;;;;;;;;;;4954406;28;20485;-70
2023/06/07 13:00:10;;;;;;;2.97;2.77;;;;;;;;;;4954737;28;20506;-70
2023/06/07 13:02:35;;;;;;;4.13;2.17;;;;;;;;;;4954673;28;20419;-69
2023/06/07 13:05:02;;;;;;;3.03;2.90;;;;;;;;;;4954845;28;20470;-70
2023/06/07 13:07:28;;;;;;;3.17;2.17;;;;;;;;;;4954827;28;20415;-69
2023/06/07 13:09:54;;;;;;;4.77;3.30;;;;;;;;;;4954517;28;20885;-69
2023/06/07 13:12:20;;;;;;;2.10;2.00;;;;;;;;;;4954567;28;20423;-70
2023/06/07 13:14:46;;;;;;;2.87;2.77;;;;;;;;;;4953490;28;20407;-69
2023/06/07 13:17:12;;;;;;;4.97;2.97;;;;;;;;;;4954451;28;20980;-69
2023/06/07 13:19:38;;;;;;;2.50;2.50;;;;;;;;;;4953859;28;20423;-69
2023/06/07 13:22:05;;;;;;;3.00;2.50;;;;;;;;;;4953209;28;20418;-68
2023/06/07 13:24:32;;;;;;;2.40;2.30;;;;;;;;;;4953353;28;20423;-70
2023/06/07 13:26:58;;;;;;;2.80;2.70;;;;;;;;;;4954014;28;20450;-69
2023/06/07 13:29:24;;;;;;;2.70;2.60;;;;;;;;;;4953863;28;20423;-70
2023/06/07 13:31:50;;;;;;;2.80;2.70;;;;;;;;;;4953866;28;20462;-69
2023/06/07 13:34:16;;;;;;;2.17;2.17;;;;;;;;;;4954254;28;20849;-69
2023/06/07 13:36:43;;;;;;;2.77;2.73;;;;;;;;;;4954468;28;20544;-69
2023/06/07 13:39:09;;;;;;;2.63;2.43;;;;;;;;;;4954364;28;20430;-69
2023/06/07 13:41:38;;;;;;;3.83;2.80;;;;;;;;;;4957931;28;20426;-69
2023/06/07 13:44:04;;;;;;;2.83;2.73;;;;;;;;;;4958763;28;20436;-69
2023/06/07 13:46:30;;;;;;;3.50;2.90;;;;;;;;;;4957488;28;20423;-70
2023/06/07 13:48:56;;;;;;;2.83;2.27;;;;;;;;;;4957748;28;20430;-70
2023/06/07 13:51:23;;;;;;;2.80;2.63;;;;;;;;;;4957956;28;20417;-69
2023/06/07 13:53:49;;;;;;;2.63;2.53;;;;;;;;;;4957190;28;20407;-68
2023/06/07 13:56:15;;;;;;;2.63;2.33;;;;;;;;;;4957414;28;20213;-68
2023/06/07 13:58:41;;;;;;;2.43;2.27;;;;;;;;;;4957832;28;20510;-69
2023/06/07 14:01:07;;;;;;;11.23;2.50;;;;;;;;;;4957339;28;20915;-67
2023/06/07 14:03:34;;;;;;;2.50;2.40;;;;;;;;;;4957314;28;20943;-68
2023/06/07 14:06:00;;;;;;;2.50;2.40;;;;;;;;;;4957671;28;20561;-69
2023/06/07 14:08:26;;;;;;;2.60;2.50;;;;;;;;;;4957072;28;20474;-69
2023/06/07 14:10:52;;;;;;;2.80;2.70;;;;;;;;;;4972086;28;20442;-69
2023/06/07 14:13:19;;;;;;;5.43;2.53;;;;;;;;;;4957005;28;20427;-69
2023/06/07 14:15:48;;;;;;;2.60;2.50;;;;;;;;;;4956843;28;20489;-68
2023/06/07 14:18:14;;;;;;;2.93;2.83;;;;;;;;;;4956796;28;20537;-70
2023/06/07 14:20:40;;;;;;;2.67;2.50;;;;;;;;;;4957103;28;20769;-69
2023/06/07 14:23:07;;;;;;;1.90;1.90;;;;;;;;;;4957117;28;20437;-68
2023/06/07 14:25:33;;;;;;;3.20;2.70;;;;;;;;;;4957045;28;20478;-70
2023/06/07 14:27:59;;;;;;;2.10;2.10;;;;;;;;;;4956983;28;20423;-69
2023/06/07 14:30:28;;;;;;;5.90;2.40;;;;;;;;;;4956923;28;20888;-69
2023/06/07 14:32:54;;;;;;;1.90;1.90;;;;;;;;;;4956956;28;20470;-69
2023/06/07 14:35:20;;;;;;;2.77;2.57;;;;;;;;;;4956737;28;20966;-70
2023/06/07 14:37:46;;;;;;;6.00;2.80;;;;;;;;;;4956717;28;20486;-70
2023/06/07 14:40:12;;;;;;;2.83;2.60;;;;;;;;;;4957008;28;20510;-69
2023/06/07 14:42:38;;;;;;;2.73;2.63;;;;;;;;;;4956955;28;20458;-69
2023/06/07 14:45:05;;;;;;;3.07;2.87;;;;;;;;;;4956653;28;20426;-70
2023/06/07 14:47:31;;;;;;;2.30;2.30;;;;;;;;;;4956466;28;20497;-68
2023/06/07 14:49:57;;;;;;;2.90;2.80;;;;;;;;;;4956911;28;20433;-68